Peleus — V2FV2 — position and weather

sailwx.info

Track history (hours):
 
Tides and Currents Weather Stations Pressure Air Temp Water Temp Dewpoint Dewpoint Depression Visibility Wind Speed Wind Dir Waves Ship Positions

Peleus

Last reported at 2016-Jul-31 00:13 UTC. Time now 2016-Jul-31 01:41 UTC.
Position N 53°57' W 005°20'.

Length 88 m; draft 5.6 m.

Type: Cargo ship. MMSI: 305810000.

Date/timePositionNaut miles runAvg speedWind from/ knotsBaromVisibWave heightAir tempDewpointWater temp
2016-Jul-31 00:13N 53°57' W 005°20'16 9.6
2016-Jul-30 22:33N 54°13' W 005°16'9 9.3
2016-Jul-30 21:33N 54°22' W 005°13'9 8.8
2016-Jul-30 20:33N 54°31' W 005°18'10 9.8
2016-Jul-30 19:33N 54°39' W 005°26'8 8.3
2016-Jul-30 18:33N 54°42' W 005°40'8 8.3
2016-Jul-30 17:33N 54°38' W 005°52'1 1.2
2016-Jul-30 16:32N 54°37' W 005°54'0 0.0
2016-Jul-30 09:23N 54°37' W 005°54'0 0.1
2016-Jul-30 08:23N 54°37' W 005°54'0 0.0
2016-Jul-30 07:33N 54°37' W 005°54'6 5.7
2016-Jul-30 06:33N 54°41' W 005°47'9 8.7
2016-Jul-30 05:33N 54°44' W 005°33'2 1.7
2016-Jul-30 04:33N 54°43' W 005°30'1 1.4
2016-Jul-30 03:33N 54°42' W 005°28'5 5.0
2016-Jul-30 02:33N 54°40' W 005°20'9 9.3
2016-Jul-30 01:33N 54°37' W 005°05'1111.3
2016-Jul-30 00:33N 54°33' W 004°47'4 0.1
2016-Jul-28 23:21N 54°33' W 004°41'6 8.0
2016-Jul-28 22:33N 54°33' W 004°52'7 7.3
2016-Jul-28 21:33N 54°37' W 005°03'9 9.0
2016-Jul-28 20:33N 54°40' W 005°17'9 8.5
2016-Jul-28 19:33N 54°43' W 005°31'9 8.7
2016-Jul-28 18:33N 54°42' W 005°46'6 6.2
2016-Jul-28 17:33N 54°37' W 005°54'0 0.0
2016-Jul-28 16:28N 54°37' W 005°54'0 0.0
2016-Jul-28 14:28N 54°37' W 005°54'0 0.0
2016-Jul-28 12:16N 54°37' W 005°54'0 0.0
2016-Jul-28 11:16N 54°37' W 005°54'0 0.1
2016-Jul-28 10:31N 54°37' W 005°54'0 0.0
2016-Jul-28 09:28N 54°37' W 005°54'0 0.0
2016-Jul-28 08:16N 54°37' W 005°54'0 0.0
2016-Jul-28 07:28N 54°37' W 005°54'0 0.3
2016-Jul-28 06:31N 54°38' W 005°54'8 8.8
2016-Jul-28 05:34N 54°43' W 005°42'6 5.5
2016-Jul-28 04:34N 54°43' W 005°33'7 6.5
2016-Jul-28 03:33N 54°38' W 005°25'9 9.2
2016-Jul-28 02:33N 54°30' W 005°17'9 9.4
2016-Jul-28 01:34N 54°21' W 005°13'1010.0
2016-Jul-28 00:33N 54°12' W 005°07'4310.7
2016-Jul-27 20:29N 53°42' W 004°13'1112.3
2016-Jul-27 19:33N 53°36' W 003°56'1211.7
2016-Jul-27 18:33N 53°33' W 003°37'1110.8
2016-Jul-27 17:33N 53°32' W 003°19'9 8.9
2016-Jul-27 16:34N 53°29' W 003°05'8 8.3
2016-Jul-27 15:33N 53°21' W 002°59'0 0.0
2016-Jul-27 14:33N 53°21' W 002°59'0 0.0
2016-Jul-27 13:33N 53°21' W 002°59'0 0.0
2016-Jul-27 12:24N 53°21' W 002°59'0 0.0
2016-Jul-27 11:33N 53°21' W 002°59'0 0.0
2016-Jul-27 10:30N 53°21' W 002°59'0 0.0
2016-Jul-27 09:33N 53°21' W 002°59'0 0.0
2016-Jul-27 08:33N 53°21' W 002°59'0 0.0
2016-Jul-27 07:33N 53°21' W 002°59'0 0.0
2016-Jul-27 06:33N 53°21' W 002°59'0 0.0
2016-Jul-27 05:33N 53°21' W 002°59'0 0.0
2016-Jul-27 04:33N 53°21' W 002°59'0 0.0
2016-Jul-27 03:33N 53°21' W 002°59'0 0.0
2016-Jul-27 02:30N 53°21' W 002°59'0 0.0
2016-Jul-27 01:33N 53°21' W 002°59'0 0.0
2016-Jul-27 00:30N 53°21' W 002°59'0 0.0
2016-Jul-26 23:33N 53°21' W 002°59'0 0.0
2016-Jul-26 22:33N 53°21' W 002°59'0 0.0
2016-Jul-26 21:33N 53°21' W 002°59'0 0.0
2016-Jul-26 20:30N 53°21' W 002°59'0 0.0
2016-Jul-26 19:30N 53°21' W 002°59'0 0.0
2016-Jul-26 18:30N 53°21' W 002°59'0 0.0
2016-Jul-26 17:33N 53°21' W 002°59'0 0.0
2016-Jul-26 16:33N 53°21' W 002°59'0 0.0
2016-Jul-26 15:33N 53°21' W 002°59'0 0.0
2016-Jul-26 14:33N 53°21' W 002°59'0 0.0
2016-Jul-26 13:33N 53°21' W 002°59'0 0.0
2016-Jul-26 12:33N 53°21' W 002°59'0 0.0
2016-Jul-26 11:30N 53°21' W 002°59'0 0.0
2016-Jul-26 10:33N 53°21' W 002°59'0 0.0
2016-Jul-26 09:33N 53°21' W 002°59'0 0.0
2016-Jul-26 08:30N 53°21' W 002°59'0 0.0
2016-Jul-26 07:30N 53°21' W 002°59'0 0.0
2016-Jul-26 06:30N 53°21' W 002°59'0 0.0
2016-Jul-26 05:33N 53°21' W 002°59'0 0.0
2016-Jul-26 04:33N 53°21' W 002°59'0 0.0
2016-Jul-26 03:33N 53°21' W 002°59'0 0.0
2016-Jul-26 02:30N 53°21' W 002°59'0 0.0
2016-Jul-26 01:27N 53°21' W 002°59'0 0.0
2016-Jul-26 00:33N 53°21' W 002°59'0 0.0
2016-Jul-25 23:33N 53°21' W 002°59'0 0.0
2016-Jul-25 22:33N 53°21' W 002°59'0 0.0
2016-Jul-25 21:27N 53°21' W 002°59'0 0.0
2016-Jul-25 20:33N 53°21' W 002°59'0 0.0
2016-Jul-25 19:30N 53°21' W 002°59'0 0.0
2016-Jul-25 18:33N 53°21' W 002°59'0 0.0
2016-Jul-25 17:33N 53°21' W 002°59'0 0.0
2016-Jul-25 16:33N 53°21' W 002°59'0 0.0
2016-Jul-25 15:33N 53°21' W 002°59'0 0.0
2016-Jul-25 14:30N 53°21' W 002°59'0 0.0
2016-Jul-25 13:33N 53°21' W 002°59'0 0.0
2016-Jul-25 12:33N 53°21' W 002°59'0 0.0
2016-Jul-25 11:30N 53°21' W 002°59'0 0.0
2016-Jul-25 10:24N 53°21' W 002°59'0 0.0
2016-Jul-25 09:33N 53°21' W 002°59'0 0.0
2016-Jul-25 08:33N 53°21' W 002°59'0 0.0
2016-Jul-25 07:33N 53°21' W 002°59'0 0.0
2016-Jul-25 06:33N 53°21' W 002°59'0 0.0
2016-Jul-25 05:27N 53°21' W 002°59'0 0.0
2016-Jul-25 04:27N 53°21' W 002°59'0 0.0
2016-Jul-25 03:33N 53°21' W 002°59'0 0.0
2016-Jul-25 02:33N 53°21' W 002°59'0 0.0
2016-Jul-25 01:33N 53°21' W 002°59'0 0.0
2016-Jul-25 00:33N 53°21' W 002°59'0 0.0
2016-Jul-24 23:30N 53°21' W 002°59'0 0.0
2016-Jul-24 22:30N 53°21' W 002°59'0 0.0
2016-Jul-24 21:33N 53°21' W 002°59'0 0.0
2016-Jul-24 20:33N 53°21' W 002°59'0 0.0
2016-Jul-24 19:33N 53°21' W 002°59'0 0.0
2016-Jul-24 18:30N 53°21' W 002°59'0 0.0
2016-Jul-24 17:30N 53°21' W 002°59'0 0.0
2016-Jul-24 16:33N 53°21' W 002°59'0 0.0
2016-Jul-24 15:33N 53°21' W 002°59'0 0.0
2016-Jul-24 14:33N 53°21' W 002°59'0 0.0
2016-Jul-24 13:24N 53°21' W 002°59'0 0.0
2016-Jul-24 12:33N 53°21' W 002°59'0 0.0
2016-Jul-24 11:33N 53°21' W 002°59'0 0.0
2016-Jul-24 10:33N 53°21' W 002°59'0 0.0
2016-Jul-24 09:30N 53°21' W 002°59'0 0.0
2016-Jul-24 08:33N 53°21' W 002°59'0 0.0
2016-Jul-24 07:33N 53°21' W 002°59'0 0.0
2016-Jul-24 06:33N 53°21' W 002°59'0 0.0
2016-Jul-24 05:33N 53°21' W 002°59'0 0.0
2016-Jul-24 04:33N 53°21' W 002°59'0 0.0
2016-Jul-24 03:30N 53°21' W 002°59'0 0.0
2016-Jul-24 02:33N 53°21' W 002°59'0 0.0
2016-Jul-24 01:33N 53°21' W 002°59'0 0.0
2016-Jul-24 00:33N 53°21' W 002°59'0 0.0
2016-Jul-23 23:30N 53°21' W 002°59'0 0.0
2016-Jul-23 22:33N 53°21' W 002°59'0 0.0
2016-Jul-23 21:30N 53°21' W 002°59'0 0.0
2016-Jul-23 20:33N 53°21' W 002°59'0 0.0
2016-Jul-23 19:33N 53°21' W 002°59'0 0.0
2016-Jul-23 18:30N 53°21' W 002°59'0 0.0
2016-Jul-23 17:33N 53°21' W 002°59'0 0.0
2016-Jul-23 16:33N 53°21' W 002°59'0 0.0
2016-Jul-23 15:33N 53°21' W 002°59'0 0.0
2016-Jul-23 14:33N 53°21' W 002°59'0 0.0
2016-Jul-23 13:33N 53°21' W 002°59'0 0.0
2016-Jul-23 12:33N 53°21' W 002°59'0 0.0
2016-Jul-23 11:33N 53°21' W 002°59'0 0.0
2016-Jul-23 10:33N 53°21' W 002°59'0 0.0
2016-Jul-23 09:33N 53°21' W 002°59'0 0.0
2016-Jul-23 08:33N 53°21' W 002°59'0 0.0
2016-Jul-23 07:33N 53°21' W 002°59'0 0.0
2016-Jul-23 06:33N 53°21' W 002°59'0 0.0
2016-Jul-23 04:33N 53°21' W 002°59'0 0.0
2016-Jul-23 03:33N 53°21' W 002°59'0 0.0
2016-Jul-23 02:33N 53°21' W 002°59'0 0.0
2016-Jul-23 01:33N 53°21' W 002°59'2 1.9
2016-Jul-23 00:33N 53°23' W 002°60'1010.4
2016-Jul-22 23:33N 53°32' W 003°10'8 8.1
2016-Jul-22 22:33N 53°30' W 003°23'2 1.7
2016-Jul-22 21:28N 53°29' W 003°26'0 0.0
2016-Jul-22 20:31N 53°29' W 003°26'0 0.1
2016-Jul-22 19:31N 53°29' W 003°26'0 0.1
2016-Jul-22 18:31N 53°29' W 003°26'0 0.0
2016-Jul-22 17:31N 53°29' W 003°26'0 0.0
2016-Jul-22 16:31N 53°29' W 003°26'0 0.1
2016-Jul-22 15:31N 53°29' W 003°26'0 0.0
2016-Jul-22 14:31N 53°29' W 003°26'0 0.0
2016-Jul-22 13:31N 53°29' W 003°26'0 0.1
2016-Jul-22 12:31N 53°29' W 003°26'0 0.0
2016-Jul-22 11:28N 53°29' W 003°26'0 0.0
2016-Jul-22 10:31N 53°29' W 003°26'0 0.0
2016-Jul-22 09:31N 53°29' W 003°26'0 0.0
2016-Jul-22 08:31N 53°29' W 003°26'0 0.1
2016-Jul-22 07:31N 53°29' W 003°26'0 0.0
2016-Jul-22 04:31N 53°29' W 003°26'0 0.0
2016-Jul-22 03:25N 53°29' W 003°26'0 0.0
2016-Jul-22 02:31N 53°29' W 003°26'0 0.0
2016-Jul-22 01:31N 53°29' W 003°26'0 0.0
2016-Jul-22 00:31N 53°29' W 003°26'0 0.1
2016-Jul-21 23:31N 53°29' W 003°26'0 0.0
2016-Jul-21 22:31N 53°29' W 003°26'0 0.0
2016-Jul-21 21:31N 53°29' W 003°26'0 0.0
2016-Jul-21 20:31N 53°29' W 003°26'0 0.1
2016-Jul-21 19:31N 53°29' W 003°26'0 0.1
2016-Jul-21 18:28N 53°29' W 003°26'0 0.0
2016-Jul-21 17:31N 53°29' W 003°26'0 0.0
2016-Jul-21 16:25N 53°29' W 003°26'0 0.0
2016-Jul-21 15:31N 53°29' W 003°26'0 0.0
2016-Jul-21 14:28N 53°29' W 003°26'0 0.0
2016-Jul-21 13:31N 53°29' W 003°26'1 0.9
2016-Jul-21 12:34N 53°30' W 003°26'9 8.7
2016-Jul-21 11:34N 53°31' W 003°41'1111.1
2016-Jul-21 10:33N 53°31' W 003°60'  
Track history (hours):
 
Tides and Currents Weather Stations Pressure Air Temp Water Temp Dewpoint Dewpoint Depression Visibility Wind Speed Wind Dir Waves Ship Positions

Peleus

Last reported at 2016-Jul-31 00:13 UTC. Time now 2016-Jul-31 01:41 UTC.
Position N 53°57' W 005°20'.

Length 88 m; draft 5.6 m.

Type: Cargo ship. MMSI: 305810000.

Date/timePositionNaut miles runAvg speedWind from/ knotsBaromVisibWave heightAir tempDewpointWater temp
2016-Jul-31 00:13N 53°57' W 005°20'16 9.6
2016-Jul-30 22:33N 54°13' W 005°16'9 9.3
2016-Jul-30 21:33N 54°22' W 005°13'9 8.8
2016-Jul-30 20:33N 54°31' W 005°18'10 9.8
2016-Jul-30 19:33N 54°39' W 005°26'8 8.3
2016-Jul-30 18:33N 54°42' W 005°40'8 8.3
2016-Jul-30 17:33N 54°38' W 005°52'1 1.2
2016-Jul-30 16:32N 54°37' W 005°54'0 0.0
2016-Jul-30 09:23N 54°37' W 005°54'0 0.1
2016-Jul-30 08:23N 54°37' W 005°54'0 0.0
2016-Jul-30 07:33N 54°37' W 005°54'6 5.7
2016-Jul-30 06:33N 54°41' W 005°47'9 8.7
2016-Jul-30 05:33N 54°44' W 005°33'2 1.7
2016-Jul-30 04:33N 54°43' W 005°30'1 1.4
2016-Jul-30 03:33N 54°42' W 005°28'5 5.0
2016-Jul-30 02:33N 54°40' W 005°20'9 9.3
2016-Jul-30 01:33N 54°37' W 005°05'1111.3
2016-Jul-30 00:33N 54°33' W 004°47'4 0.1
2016-Jul-28 23:21N 54°33' W 004°41'6 8.0
2016-Jul-28 22:33N 54°33' W 004°52'7 7.3
2016-Jul-28 21:33N 54°37' W 005°03'9 9.0
2016-Jul-28 20:33N 54°40' W 005°17'9 8.5
2016-Jul-28 19:33N 54°43' W 005°31'9 8.7
2016-Jul-28 18:33N 54°42' W 005°46'6 6.2
2016-Jul-28 17:33N 54°37' W 005°54'0 0.0
2016-Jul-28 16:28N 54°37' W 005°54'0 0.0
2016-Jul-28 14:28N 54°37' W 005°54'0 0.0
2016-Jul-28 12:16N 54°37' W 005°54'0 0.0
2016-Jul-28 11:16N 54°37' W 005°54'0 0.1
2016-Jul-28 10:31N 54°37' W 005°54'0 0.0
2016-Jul-28 09:28N 54°37' W 005°54'0 0.0
2016-Jul-28 08:16N 54°37' W 005°54'0 0.0
2016-Jul-28 07:28N 54°37' W 005°54'0 0.3
2016-Jul-28 06:31N 54°38' W 005°54'8 8.8
2016-Jul-28 05:34N 54°43' W 005°42'6 5.5
2016-Jul-28 04:34N 54°43' W 005°33'7 6.5
2016-Jul-28 03:33N 54°38' W 005°25'9 9.2
2016-Jul-28 02:33N 54°30' W 005°17'9 9.4
2016-Jul-28 01:34N 54°21' W 005°13'1010.0
2016-Jul-28 00:33N 54°12' W 005°07'4310.7
2016-Jul-27 20:29N 53°42' W 004°13'1112.3
2016-Jul-27 19:33N 53°36' W 003°56'1211.7
2016-Jul-27 18:33N 53°33' W 003°37'1110.8
2016-Jul-27 17:33N 53°32' W 003°19'9 8.9
2016-Jul-27 16:34N 53°29' W 003°05'8 8.3
2016-Jul-27 15:33N 53°21' W 002°59'0 0.0
2016-Jul-27 14:33N 53°21' W 002°59'0 0.0
2016-Jul-27 13:33N 53°21' W 002°59'0 0.0
2016-Jul-27 12:24N 53°21' W 002°59'0 0.0
2016-Jul-27 11:33N 53°21' W 002°59'0 0.0
2016-Jul-27 10:30N 53°21' W 002°59'0 0.0
2016-Jul-27 09:33N 53°21' W 002°59'0 0.0
2016-Jul-27 08:33N 53°21' W 002°59'0 0.0
2016-Jul-27 07:33N 53°21' W 002°59'0 0.0
2016-Jul-27 06:33N 53°21' W 002°59'0 0.0
2016-Jul-27 05:33N 53°21' W 002°59'0 0.0
2016-Jul-27 04:33N 53°21' W 002°59'0 0.0
2016-Jul-27 03:33N 53°21' W 002°59'0 0.0
2016-Jul-27 02:30N 53°21' W 002°59'0 0.0
2016-Jul-27 01:33N 53°21' W 002°59'0 0.0
2016-Jul-27 00:30N 53°21' W 002°59'0 0.0
2016-Jul-26 23:33N 53°21' W 002°59'0 0.0
2016-Jul-26 22:33N 53°21' W 002°59'0 0.0
2016-Jul-26 21:33N 53°21' W 002°59'0 0.0
2016-Jul-26 20:30N 53°21' W 002°59'0 0.0
2016-Jul-26 19:30N 53°21' W 002°59'0 0.0
2016-Jul-26 18:30N 53°21' W 002°59'0 0.0
2016-Jul-26 17:33N 53°21' W 002°59'0 0.0
2016-Jul-26 16:33N 53°21' W 002°59'0 0.0
2016-Jul-26 15:33N 53°21' W 002°59'0 0.0
2016-Jul-26 14:33N 53°21' W 002°59'0 0.0
2016-Jul-26 13:33N 53°21' W 002°59'0 0.0
2016-Jul-26 12:33N 53°21' W 002°59'0 0.0
2016-Jul-26 11:30N 53°21' W 002°59'0 0.0
2016-Jul-26 10:33N 53°21' W 002°59'0 0.0
2016-Jul-26 09:33N 53°21' W 002°59'0 0.0
2016-Jul-26 08:30N 53°21' W 002°59'0 0.0
2016-Jul-26 07:30N 53°21' W 002°59'0 0.0
2016-Jul-26 06:30N 53°21' W 002°59'0 0.0
2016-Jul-26 05:33N 53°21' W 002°59'0 0.0
2016-Jul-26 04:33N 53°21' W 002°59'0 0.0
2016-Jul-26 03:33N 53°21' W 002°59'0 0.0
2016-Jul-26 02:30N 53°21' W 002°59'0 0.0
2016-Jul-26 01:27N 53°21' W 002°59'0 0.0
2016-Jul-26 00:33N 53°21' W 002°59'0 0.0
2016-Jul-25 23:33N 53°21' W 002°59'0 0.0
2016-Jul-25 22:33N 53°21' W 002°59'0 0.0
2016-Jul-25 21:27N 53°21' W 002°59'0 0.0
2016-Jul-25 20:33N 53°21' W 002°59'0 0.0
2016-Jul-25 19:30N 53°21' W 002°59'0 0.0
2016-Jul-25 18:33N 53°21' W 002°59'0 0.0
2016-Jul-25 17:33N 53°21' W 002°59'0 0.0
2016-Jul-25 16:33N 53°21' W 002°59'0 0.0
2016-Jul-25 15:33N 53°21' W 002°59'0 0.0
2016-Jul-25 14:30N 53°21' W 002°59'0 0.0
2016-Jul-25 13:33N 53°21' W 002°59'0 0.0
2016-Jul-25 12:33N 53°21' W 002°59'0 0.0
2016-Jul-25 11:30N 53°21' W 002°59'0 0.0
2016-Jul-25 10:24N 53°21' W 002°59'0 0.0
2016-Jul-25 09:33N 53°21' W 002°59'0 0.0
2016-Jul-25 08:33N 53°21' W 002°59'0 0.0
2016-Jul-25 07:33N 53°21' W 002°59'0 0.0
2016-Jul-25 06:33N 53°21' W 002°59'0 0.0
2016-Jul-25 05:27N 53°21' W 002°59'0 0.0
2016-Jul-25 04:27N 53°21' W 002°59'0 0.0
2016-Jul-25 03:33N 53°21' W 002°59'0 0.0
2016-Jul-25 02:33N 53°21' W 002°59'0 0.0
2016-Jul-25 01:33N 53°21' W 002°59'0 0.0
2016-Jul-25 00:33N 53°21' W 002°59'0 0.0
2016-Jul-24 23:30N 53°21' W 002°59'0 0.0
2016-Jul-24 22:30N 53°21' W 002°59'0 0.0
2016-Jul-24 21:33N 53°21' W 002°59'0 0.0
2016-Jul-24 20:33N 53°21' W 002°59'0 0.0
2016-Jul-24 19:33N 53°21' W 002°59'0 0.0
2016-Jul-24 18:30N 53°21' W 002°59'0 0.0
2016-Jul-24 17:30N 53°21' W 002°59'0 0.0
2016-Jul-24 16:33N 53°21' W 002°59'0 0.0
2016-Jul-24 15:33N 53°21' W 002°59'0 0.0
2016-Jul-24 14:33N 53°21' W 002°59'0 0.0
2016-Jul-24 13:24N 53°21' W 002°59'0 0.0
2016-Jul-24 12:33N 53°21' W 002°59'0 0.0
2016-Jul-24 11:33N 53°21' W 002°59'0 0.0
2016-Jul-24 10:33N 53°21' W 002°59'0 0.0
2016-Jul-24 09:30N 53°21' W 002°59'0 0.0
2016-Jul-24 08:33N 53°21' W 002°59'0 0.0
2016-Jul-24 07:33N 53°21' W 002°59'0 0.0
2016-Jul-24 06:33N 53°21' W 002°59'0 0.0
2016-Jul-24 05:33N 53°21' W 002°59'0 0.0
2016-Jul-24 04:33N 53°21' W 002°59'0 0.0
2016-Jul-24 03:30N 53°21' W 002°59'0 0.0
2016-Jul-24 02:33N 53°21' W 002°59'0 0.0
2016-Jul-24 01:33N 53°21' W 002°59'0 0.0
2016-Jul-24 00:33N 53°21' W 002°59'0 0.0
2016-Jul-23 23:30N 53°21' W 002°59'0 0.0
2016-Jul-23 22:33N 53°21' W 002°59'0 0.0
2016-Jul-23 21:30N 53°21' W 002°59'0 0.0
2016-Jul-23 20:33N 53°21' W 002°59'0 0.0
2016-Jul-23 19:33N 53°21' W 002°59'0 0.0
2016-Jul-23 18:30N 53°21' W 002°59'0 0.0
2016-Jul-23 17:33N 53°21' W 002°59'0 0.0
2016-Jul-23 16:33N 53°21' W 002°59'0 0.0
2016-Jul-23 15:33N 53°21' W 002°59'0 0.0
2016-Jul-23 14:33N 53°21' W 002°59'0 0.0
2016-Jul-23 13:33N 53°21' W 002°59'0 0.0
2016-Jul-23 12:33N 53°21' W 002°59'0 0.0
2016-Jul-23 11:33N 53°21' W 002°59'0 0.0
2016-Jul-23 10:33N 53°21' W 002°59'0 0.0
2016-Jul-23 09:33N 53°21' W 002°59'0 0.0
2016-Jul-23 08:33N 53°21' W 002°59'0 0.0
2016-Jul-23 07:33N 53°21' W 002°59'0 0.0
2016-Jul-23 06:33N 53°21' W 002°59'0 0.0
2016-Jul-23 04:33N 53°21' W 002°59'0 0.0
2016-Jul-23 03:33N 53°21' W 002°59'0 0.0
2016-Jul-23 02:33N 53°21' W 002°59'0 0.0
2016-Jul-23 01:33N 53°21' W 002°59'2 1.9
2016-Jul-23 00:33N 53°23' W 002°60'1010.4
2016-Jul-22 23:33N 53°32' W 003°10'8 8.1
2016-Jul-22 22:33N 53°30' W 003°23'2 1.7
2016-Jul-22 21:28N 53°29' W 003°26'0 0.0
2016-Jul-22 20:31N 53°29' W 003°26'0 0.1
2016-Jul-22 19:31N 53°29' W 003°26'0 0.1
2016-Jul-22 18:31N 53°29' W 003°26'0 0.0
2016-Jul-22 17:31N 53°29' W 003°26'0 0.0
2016-Jul-22 16:31N 53°29' W 003°26'0 0.1
2016-Jul-22 15:31N 53°29' W 003°26'0 0.0
2016-Jul-22 14:31N 53°29' W 003°26'0 0.0
2016-Jul-22 13:31N 53°29' W 003°26'0 0.1
2016-Jul-22 12:31N 53°29' W 003°26'0 0.0
2016-Jul-22 11:28N 53°29' W 003°26'0 0.0
2016-Jul-22 10:31N 53°29' W 003°26'0 0.0
2016-Jul-22 09:31N 53°29' W 003°26'0 0.0
2016-Jul-22 08:31N 53°29' W 003°26'0 0.1
2016-Jul-22 07:31N 53°29' W 003°26'0 0.0
2016-Jul-22 04:31N 53°29' W 003°26'0 0.0
2016-Jul-22 03:25N 53°29' W 003°26'0 0.0
2016-Jul-22 02:31N 53°29' W 003°26'0 0.0
2016-Jul-22 01:31N 53°29' W 003°26'0 0.0
2016-Jul-22 00:31N 53°29' W 003°26'0 0.1
2016-Jul-21 23:31N 53°29' W 003°26'0 0.0
2016-Jul-21 22:31N 53°29' W 003°26'0 0.0
2016-Jul-21 21:31N 53°29' W 003°26'0 0.0
2016-Jul-21 20:31N 53°29' W 003°26'0 0.1
2016-Jul-21 19:31N 53°29' W 003°26'0 0.1
2016-Jul-21 18:28N 53°29' W 003°26'0 0.0
2016-Jul-21 17:31N 53°29' W 003°26'0 0.0
2016-Jul-21 16:25N 53°29' W 003°26'0 0.0
2016-Jul-21 15:31N 53°29' W 003°26'0 0.0
2016-Jul-21 14:28N 53°29' W 003°26'0 0.0
2016-Jul-21 13:31N 53°29' W 003°26'1 0.9
2016-Jul-21 12:34N 53°30' W 003°26'9 8.7
2016-Jul-21 11:34N 53°31' W 003°41'1111.1
2016-Jul-21 10:33N 53°31' W 003°60'  

Dump ship's entire track history